Buoy 41607

sailwx.info

Track history (hours):
 
Tides and Currents Weather Stations Pressure Air Temp Water Temp Dewpoint Dewpoint Depression Visibility Wind Speed Wind Dir Waves Ship Positions

Drifting buoy 41607

Last reported at 2015-Mar-30 21:00 UTC. Time now 2015-Mar-30 23:05 UTC.
Position N 26°53' W 060°51'.

Water temperature 23.7 ° C

Date/timePositionNaut miles runAvg speedWind from/ knotsBaromVisibWave heightAir tempDewpointWater temp
2015-Mar-30 21:00N 26°53' W 060°51'0 0.0 23.7
2015-Mar-30 20:00N 26°53' W 060°51'2 1.2 23.7
2015-Mar-30 18:00N 26°55' W 060°50'0 0.0 23.7
2015-Mar-30 17:00N 26°55' W 060°50'2 2.2 23.7
2015-Mar-30 16:00N 26°58' W 060°50'0 0.1 23.7
2015-Mar-30 15:00N 26°58' W 060°50'2 2.1 23.7
2015-Mar-30 14:00N 26°60' W 060°51'1 0.8 23.7
2015-Mar-30 13:00N 27°00' W 060°51'0 0.0 23.7
2015-Mar-30 12:00N 27°00' W 060°51'2 0.9 23.8
2015-Mar-30 10:00N 27°02' W 060°51'1 0.7 23.8
2015-Mar-30 08:00N 27°03' W 060°52'0 0.0 23.8
2015-Mar-30 07:00N 27°03' W 060°52'5 0.9 23.8
2015-Mar-30 01:00N 27°07' W 060°57'1 0.6 23.9
2015-Mar-30 00:00N 27°06' W 060°57'3 1.3 23.9
2015-Mar-29 22:00N 27°06' W 061°00'0 0.2 23.9
2015-Mar-29 20:00N 27°06' W 060°60'1 0.8 23.9
2015-Mar-29 19:00N 27°07' W 061°00'1 1.0 23.9
2015-Mar-29 18:00N 27°06' W 061°01'0 0.4 23.9
2015-Mar-29 17:00N 27°05' W 061°01'0 0.0 23.9
2015-Mar-29 15:00N 27°05' W 061°01'0 0.4 23.9
2015-Mar-29 14:00N 27°05' W 061°02'1 0.3 23.9
2015-Mar-29 10:00N 27°04' W 061°02'0 0.4 23.8
2015-Mar-29 09:00N 27°04' W 061°03'0 0.1 23.8
2015-Mar-29 07:00N 27°04' W 061°03'1 0.3 23.8
2015-Mar-29 05:00N 27°04' W 061°03'1 0.2 23.8
2015-Mar-29 02:00N 27°04' W 061°04'1 1.2 23.8
2015-Mar-29 01:00N 27°04' W 061°05'0 0.4 23.8
2015-Mar-29 00:00N 27°04' W 061°06'2 0.8 23.8
2015-Mar-28 22:00N 27°03' W 061°07'1 0.3 23.8
2015-Mar-28 20:00N 27°02' W 061°08'1 0.6 23.8
2015-Mar-28 19:00N 27°02' W 061°08'2 0.4 23.8
2015-Mar-28 14:00N 27°00' W 061°09'0 0.4 23.8
2015-Mar-28 13:00N 26°60' W 061°09'1 0.6 23.8
2015-Mar-28 11:00N 26°59' W 061°09'0 0.1 23.7
2015-Mar-28 10:00N 26°59' W 061°09'1 0.9 23.7
2015-Mar-28 09:00N 26°58' W 061°08'1 0.8 23.7
2015-Mar-28 08:00N 26°58' W 061°08'2 1.9 23.7
2015-Mar-28 07:00N 26°58' W 061°10'2 0.3 23.7
2015-Mar-28 02:00N 26°57' W 061°09'0 0.4 23.8
2015-Mar-28 01:00N 26°56' W 061°09'0 0.3 23.8
2015-Mar-28 00:00N 26°56' W 061°09'2 0.3 23.8
2015-Mar-27 19:00N 26°55' W 061°09'1 0.4 23.8
2015-Mar-27 17:00N 26°54' W 061°08'0 0.0 23.8
2015-Mar-27 16:00N 26°54' W 061°08'1 0.3 23.8
2015-Mar-27 14:00N 26°54' W 061°09'1 1.1 23.8
2015-Mar-27 13:00N 26°53' W 061°08'0 0.0 23.8
2015-Mar-27 11:00N 26°53' W 061°08'0 0.3 23.7
2015-Mar-27 10:00N 26°53' W 061°07'1 0.7 23.7
2015-Mar-27 08:00N 26°52' W 061°06'0 0.0 23.7
2015-Mar-27 06:00N 26°52' W 061°06'2 0.6 23.8
2015-Mar-27 02:00N 26°50' W 061°04'1 0.9 23.8
2015-Mar-27 01:00N 26°50' W 061°03'0 0.3 23.9
2015-Mar-27 00:00N 26°50' W 061°03'1 0.8 23.9
2015-Mar-26 23:00N 26°51' W 061°02'1 0.4 23.9
2015-Mar-26 20:00N 26°51' W 061°01'5 0.4 24.0
2015-Mar-26 07:00N 26°54' W 060°56'4 0.6 24.0
2015-Mar-26 01:00N 26°57' W 060°54'5 0.9 24.0
2015-Mar-25 20:00N 27°01' W 060°51'0 0.0 24.1
2015-Mar-25 19:00N 27°01' W 060°51'2 1.9 24.1
2015-Mar-25 18:00N 27°03' W 060°51'0 0.0 24.0
2015-Mar-25 17:00N 27°03' W 060°51'1 1.1 24.0
2015-Mar-25 16:00N 27°03' W 060°50'0 0.0 24.0
2015-Mar-25 15:00N 27°03' W 060°50'1 1.0 24.1
2015-Mar-25 14:00N 27°04' W 060°50'1 0.6 24.0
2015-Mar-25 12:00N 27°06' W 060°50'0 0.3 23.8
2015-Mar-25 11:00N 27°06' W 060°50'1 0.6 23.8
2015-Mar-25 10:00N 27°06' W 060°50'0 0.4 23.8
2015-Mar-25 09:00N 27°06' W 060°51'0 0.3 23.9
2015-Mar-25 08:00N 27°06' W 060°51'0 0.3 23.9
2015-Mar-25 07:00N 27°06' W 060°51'1 0.4 23.9
2015-Mar-25 04:00N 27°06' W 060°53'1 0.4 23.9
2015-Mar-25 01:00N 27°06' W 060°54'3 0.3 24.0
2015-Mar-24 16:00N 27°07' W 060°57'1 0.6 24.1
2015-Mar-24 14:00N 27°07' W 060°58'2 0.7 24.0
2015-Mar-24 11:00N 27°07' W 061°01'3 0.6 23.9
2015-Mar-24 07:00N 27°07' W 061°03'8 0.9 24.0
2015-Mar-23 22:00N 27°03' W 061°12'3 0.7 24.3
2015-Mar-23 18:00N 27°01' W 061°14'9 1.1 24.4
2015-Mar-23 10:00N 26°54' W 061°19'20 0.9 24.0
2015-Mar-22 11:00N 26°34' W 061°17'8 0.6 23.9
2015-Mar-21 21:00N 26°26' W 061°17'10 0.8 24.1
2015-Mar-21 08:00N 26°20' W 061°08'3 0.4 23.8
2015-Mar-21 01:00N 26°18' W 061°05'3 1.5 23.9
2015-Mar-20 23:00N 26°17' W 061°02'2 1.8 24.0
2015-Mar-20 22:00N 26°16' W 061°00'   24.0
Track history (hours):
 
Tides and Currents Weather Stations Pressure Air Temp Water Temp Dewpoint Dewpoint Depression Visibility Wind Speed Wind Dir Waves Ship Positions

Drifting buoy 41607

Last reported at 2015-Mar-30 21:00 UTC. Time now 2015-Mar-30 23:05 UTC.
Position N 26°53' W 060°51'.

Water temperature 23.7 ° C

Date/timePositionNaut miles runAvg speedWind from/ knotsBaromVisibWave heightAir tempDewpointWater temp
2015-Mar-30 21:00N 26°53' W 060°51'0 0.0 23.7
2015-Mar-30 20:00N 26°53' W 060°51'2 1.2 23.7
2015-Mar-30 18:00N 26°55' W 060°50'0 0.0 23.7
2015-Mar-30 17:00N 26°55' W 060°50'2 2.2 23.7
2015-Mar-30 16:00N 26°58' W 060°50'0 0.1 23.7
2015-Mar-30 15:00N 26°58' W 060°50'2 2.1 23.7
2015-Mar-30 14:00N 26°60' W 060°51'1 0.8 23.7
2015-Mar-30 13:00N 27°00' W 060°51'0 0.0 23.7
2015-Mar-30 12:00N 27°00' W 060°51'2 0.9 23.8
2015-Mar-30 10:00N 27°02' W 060°51'1 0.7 23.8
2015-Mar-30 08:00N 27°03' W 060°52'0 0.0 23.8
2015-Mar-30 07:00N 27°03' W 060°52'5 0.9 23.8
2015-Mar-30 01:00N 27°07' W 060°57'1 0.6 23.9
2015-Mar-30 00:00N 27°06' W 060°57'3 1.3 23.9
2015-Mar-29 22:00N 27°06' W 061°00'0 0.2 23.9
2015-Mar-29 20:00N 27°06' W 060°60'1 0.8 23.9
2015-Mar-29 19:00N 27°07' W 061°00'1 1.0 23.9
2015-Mar-29 18:00N 27°06' W 061°01'0 0.4 23.9
2015-Mar-29 17:00N 27°05' W 061°01'0 0.0 23.9
2015-Mar-29 15:00N 27°05' W 061°01'0 0.4 23.9
2015-Mar-29 14:00N 27°05' W 061°02'1 0.3 23.9
2015-Mar-29 10:00N 27°04' W 061°02'0 0.4 23.8
2015-Mar-29 09:00N 27°04' W 061°03'0 0.1 23.8
2015-Mar-29 07:00N 27°04' W 061°03'1 0.3 23.8
2015-Mar-29 05:00N 27°04' W 061°03'1 0.2 23.8
2015-Mar-29 02:00N 27°04' W 061°04'1 1.2 23.8
2015-Mar-29 01:00N 27°04' W 061°05'0 0.4 23.8
2015-Mar-29 00:00N 27°04' W 061°06'2 0.8 23.8
2015-Mar-28 22:00N 27°03' W 061°07'1 0.3 23.8
2015-Mar-28 20:00N 27°02' W 061°08'1 0.6 23.8
2015-Mar-28 19:00N 27°02' W 061°08'2 0.4 23.8
2015-Mar-28 14:00N 27°00' W 061°09'0 0.4 23.8
2015-Mar-28 13:00N 26°60' W 061°09'1 0.6 23.8
2015-Mar-28 11:00N 26°59' W 061°09'0 0.1 23.7
2015-Mar-28 10:00N 26°59' W 061°09'1 0.9 23.7
2015-Mar-28 09:00N 26°58' W 061°08'1 0.8 23.7
2015-Mar-28 08:00N 26°58' W 061°08'2 1.9 23.7
2015-Mar-28 07:00N 26°58' W 061°10'2 0.3 23.7
2015-Mar-28 02:00N 26°57' W 061°09'0 0.4 23.8
2015-Mar-28 01:00N 26°56' W 061°09'0 0.3 23.8
2015-Mar-28 00:00N 26°56' W 061°09'2 0.3 23.8
2015-Mar-27 19:00N 26°55' W 061°09'1 0.4 23.8
2015-Mar-27 17:00N 26°54' W 061°08'0 0.0 23.8
2015-Mar-27 16:00N 26°54' W 061°08'1 0.3 23.8
2015-Mar-27 14:00N 26°54' W 061°09'1 1.1 23.8
2015-Mar-27 13:00N 26°53' W 061°08'0 0.0 23.8
2015-Mar-27 11:00N 26°53' W 061°08'0 0.3 23.7
2015-Mar-27 10:00N 26°53' W 061°07'1 0.7 23.7
2015-Mar-27 08:00N 26°52' W 061°06'0 0.0 23.7
2015-Mar-27 06:00N 26°52' W 061°06'2 0.6 23.8
2015-Mar-27 02:00N 26°50' W 061°04'1 0.9 23.8
2015-Mar-27 01:00N 26°50' W 061°03'0 0.3 23.9
2015-Mar-27 00:00N 26°50' W 061°03'1 0.8 23.9
2015-Mar-26 23:00N 26°51' W 061°02'1 0.4 23.9
2015-Mar-26 20:00N 26°51' W 061°01'5 0.4 24.0
2015-Mar-26 07:00N 26°54' W 060°56'4 0.6 24.0
2015-Mar-26 01:00N 26°57' W 060°54'5 0.9 24.0
2015-Mar-25 20:00N 27°01' W 060°51'0 0.0 24.1
2015-Mar-25 19:00N 27°01' W 060°51'2 1.9 24.1
2015-Mar-25 18:00N 27°03' W 060°51'0 0.0 24.0
2015-Mar-25 17:00N 27°03' W 060°51'1 1.1 24.0
2015-Mar-25 16:00N 27°03' W 060°50'0 0.0 24.0
2015-Mar-25 15:00N 27°03' W 060°50'1 1.0 24.1
2015-Mar-25 14:00N 27°04' W 060°50'1 0.6 24.0
2015-Mar-25 12:00N 27°06' W 060°50'0 0.3 23.8
2015-Mar-25 11:00N 27°06' W 060°50'1 0.6 23.8
2015-Mar-25 10:00N 27°06' W 060°50'0 0.4 23.8
2015-Mar-25 09:00N 27°06' W 060°51'0 0.3 23.9
2015-Mar-25 08:00N 27°06' W 060°51'0 0.3 23.9
2015-Mar-25 07:00N 27°06' W 060°51'1 0.4 23.9
2015-Mar-25 04:00N 27°06' W 060°53'1 0.4 23.9
2015-Mar-25 01:00N 27°06' W 060°54'3 0.3 24.0
2015-Mar-24 16:00N 27°07' W 060°57'1 0.6 24.1
2015-Mar-24 14:00N 27°07' W 060°58'2 0.7 24.0
2015-Mar-24 11:00N 27°07' W 061°01'3 0.6 23.9
2015-Mar-24 07:00N 27°07' W 061°03'8 0.9 24.0
2015-Mar-23 22:00N 27°03' W 061°12'3 0.7 24.3
2015-Mar-23 18:00N 27°01' W 061°14'9 1.1 24.4
2015-Mar-23 10:00N 26°54' W 061°19'20 0.9 24.0
2015-Mar-22 11:00N 26°34' W 061°17'8 0.6 23.9
2015-Mar-21 21:00N 26°26' W 061°17'10 0.8 24.1
2015-Mar-21 08:00N 26°20' W 061°08'3 0.4 23.8
2015-Mar-21 01:00N 26°18' W 061°05'3 1.5 23.9
2015-Mar-20 23:00N 26°17' W 061°02'2 1.8 24.0
2015-Mar-20 22:00N 26°16' W 061°00'   24.0

Dump ship's entire track history